Terminal Aerodrome Forecast
Issued by NWS

Home | Current Version | Previous Version | Graphics & Text | Print | Product List | Glossary On
Versions: 1 2 3 4 5 6 7 8 9 10 11 12 13 14 15 16 17
392
FTUS43 KMPX 070433 AAA
TAFRWF
TAF AMD
KRWF 070433Z 0705/0724 27023G32KT P6SM SCT020 OVC035
      TEMPO 0705/0708 OVC020
     FM071700 29020G28KT P6SM BKN035 OVC050=

USA.gov is the U.S. government's official web portal to all federal, state and local government web resources and services.